Terminal Aerodrome Forecast
Issued by NWS

Home | Current Version | Previous Version | Text Only | Print | Product List | Glossary On
Versions: 1 2 3 4 5 6 7 8 9 10 11 12 13 14 15 16 17 18 19 20 21 22
000
FTUS43 KICT 151740
TAFRSL
TAF
KRSL 151740Z 1518/1618 32026G36KT P6SM BKN035
      TEMPO 1518/1522 BKN025
     FM152300 34018G27KT P6SM BKN030
     FM161000 34015KT P6SM SCT030 BKN035=

USA.gov is the U.S. government's official web portal to all federal, state and local government web resources and services.